Time;durP1;ratioP1;P1;durP2;ratioP2;P2;SDS_P1;SDS_P2;PMS_P1;PMS_P2;Temp;Humidity;BMP_temperature;BMP_pressure;BME280_temperature;BME280_humidity;BME280_pressure;Samples;Min_cycle;Max_cycle;Signal;HPM_P1;HPM_P2
2024/05/08 00:01:05;;;;;;;4.20;3.80;;;;;;;12.37;43.18;98903.41;5398660;26;20840;-46
2024/05/08 00:03:35;;;;;;;4.30;3.90;;;;;;;12.18;43.58;98899.25;5397804;26;20632;-46
2024/05/08 00:06:04;;;;;;;4.28;3.28;;;;;;;12.07;43.95;98900.88;5398893;26;21893;-46
2024/05/08 00:08:37;;;;;;;4.70;3.40;;;;;;;12.10;43.55;98895.13;5388214;26;20001;-47
2024/05/08 00:11:06;;;;;;;4.47;4.00;;;;;;;12.08;43.60;98897.19;5389049;26;20010;-46
2024/05/08 00:13:36;;;;;;;4.05;3.30;;;;;;;11.90;43.79;98888.31;5403157;26;20014;-46
2024/05/08 00:16:06;;;;;;;4.03;3.63;;;;;;;11.72;44.29;98889.16;5400841;26;20076;-46
2024/05/08 00:18:36;;;;;;;4.55;4.15;;;;;;;11.65;44.44;98892.91;5406374;26;20481;-46
2024/05/08 00:21:06;;;;;;;4.43;3.33;;;;;;;11.69;44.08;98900.19;5414479;26;20342;-46
2024/05/08 00:23:38;;;;;;;6.38;3.83;;;;;;;11.63;44.12;98898.44;5404264;26;19999;-46
2024/05/08 00:26:08;;;;;;;4.95;4.15;;;;;;;11.41;44.55;98900.78;5395908;26;20336;-47
2024/05/08 00:28:38;;;;;;;6.53;3.80;;;;;;;11.35;44.68;98907.78;5397340;26;19996;-46
2024/05/08 00:31:08;;;;;;;3.85;3.55;;;;;;;11.38;44.84;98903.88;5397650;26;20052;-46
2024/05/08 00:33:37;;;;;;;5.10;3.85;;;;;;;11.23;45.01;98914.03;5399598;26;20008;-46
2024/05/08 00:36:07;;;;;;;4.32;3.92;;;;;;;11.21;44.70;98908.16;5397744;26;20008;-47
2024/05/08 00:38:39;;;;;;;4.43;3.67;;;;;;;11.17;44.64;98903.31;5398856;26;20415;-47
2024/05/08 00:41:09;;;;;;;3.97;3.67;;;;;;;11.03;45.00;98903.69;5396722;26;20379;-46
2024/05/08 00:43:39;;;;;;;4.35;3.72;;;;;;;11.04;44.92;98903.47;5397837;26;20080;-46
2024/05/08 00:46:08;;;;;;;3.85;3.47;;;;;;;11.08;44.87;98895.91;5409440;26;20366;-46
2024/05/08 00:48:38;;;;;;;4.68;4.28;;;;;;;11.10;44.70;98899.94;5415689;26;20014;-46
2024/05/08 00:51:10;;;;;;;4.80;3.95;;;;;;;11.00;44.60;98897.81;5412304;26;20415;-46
2024/05/08 00:53:43;;;;;;;3.88;3.58;;;;;;;10.93;44.97;98909.50;5379091;26;20457;-46
2024/05/08 00:56:13;;;;;;;4.45;3.80;;;;;;;10.92;44.82;98906.03;5397695;26;20665;-46
2024/05/08 00:58:43;;;;;;;3.78;3.47;;;;;;;10.79;45.15;98901.69;5400485;26;21002;-46
2024/05/08 01:01:12;;;;;;;5.25;4.85;;;;;;;10.73;45.22;98902.56;5382975;26;20004;-47
2024/05/08 01:03:42;;;;;;;4.00;3.60;;;;;;;10.61;45.48;98910.41;5399926;26;20117;-46
2024/05/08 01:06:13;;;;;;;4.38;3.97;;;;;;;10.58;45.47;98907.41;5385928;26;20438;-47
2024/05/08 01:08:45;;;;;;;4.38;3.97;;;;;;;10.39;45.91;98911.84;5379613;26;20411;-46
2024/05/08 01:11:15;;;;;;;4.63;3.75;;;;;;;10.35;46.02;98902.75;5401554;26;20014;-46
2024/05/08 01:13:44;;;;;;;4.82;4.43;;;;;;;10.53;45.67;98901.97;5420534;26;20076;-46
2024/05/08 01:16:14;;;;;;;5.07;4.68;;;;;;;10.67;45.19;98902.66;5397287;26;20077;-46
2024/05/08 01:18:43;;;;;;;4.88;4.07;;;;;;;10.56;45.31;98902.34;5401517;26;20000;-46
2024/05/08 01:21:13;;;;;;;4.28;3.95;;;;;;;10.50;45.48;98905.03;5400863;26;20004;-46
2024/05/08 01:23:49;;;;;;;6.28;3.92;;;;;;;10.46;45.59;98906.50;5424688;26;20079;-46
2024/05/08 01:26:19;;;;;;;5.20;4.20;;;;;;;10.32;45.83;98917.19;5380974;26;20015;-47
2024/05/08 01:28:48;;;;;;;5.32;4.32;;;;;;;10.31;45.88;98920.84;5401425;26;20007;-46
2024/05/08 01:31:18;;;;;;;5.25;4.75;;;;;;;10.40;45.75;98913.44;5401100;26;20701;-46
2024/05/08 01:33:47;;;;;;;4.72;4.07;;;;;;;10.31;45.96;98925.31;5398195;26;19999;-46
2024/05/08 01:36:17;;;;;;;5.50;5.00;;;;;;;10.22;46.12;98920.31;5423858;26;20013;-46
2024/05/08 01:38:49;;;;;;;6.10;3.75;;;;;;;10.37;45.89;98922.63;5401102;26;20468;-46
2024/05/08 01:41:19;;;;;;;4.43;4.03;;;;;;;10.43;45.36;98913.81;5400186;26;20771;-46
2024/05/08 01:43:48;;;;;;;6.68;4.70;;;;;;;10.32;45.82;98921.66;5401941;26;20532;-46
2024/05/08 01:46:18;;;;;;;5.28;4.88;;;;;;;10.42;45.82;98920.13;5389668;26;20011;-47
2024/05/08 01:48:47;;;;;;;5.38;4.22;;;;;;;10.53;45.70;98925.75;5387000;26;20470;-47
2024/05/08 01:51:17;;;;;;;5.57;5.13;;;;;;;10.57;45.45;98925.06;5398360;26;20336;-46
2024/05/08 01:53:49;;;;;;;4.32;3.92;;;;;;;10.57;45.39;98922.44;5376079;26;20003;-46
2024/05/08 01:56:19;;;;;;;4.70;4.25;;;;;;;10.37;45.86;98922.63;5400871;26;20322;-47
2024/05/08 01:58:48;;;;;;;5.18;4.68;;;;;;;10.48;45.59;98933.50;5396325;26;20008;-48
2024/05/08 02:01:18;;;;;;;5.10;4.70;;;;;;;10.38;46.09;98932.16;5397425;26;20018;-46
2024/05/08 02:03:47;;;;;;;3.80;3.50;;;;;;;10.50;45.74;98928.81;5408325;26;20030;-45
2024/05/08 02:06:17;;;;;;;4.82;4.43;;;;;;;10.59;45.71;98923.03;5394605;26;20018;-46
2024/05/08 02:08:49;;;;;;;5.05;4.45;;;;;;;10.56;45.59;98927.94;5402888;26;20018;-46
2024/05/08 02:11:18;;;;;;;4.50;4.10;;;;;;;10.59;45.82;98930.13;5399800;26;22137;-47
2024/05/08 02:13:48;;;;;;;5.50;5.00;;;;;;;10.61;45.71;98922.78;5420155;26;20007;-46
2024/05/08 02:16:18;;;;;;;5.28;4.78;;;;;;;10.61;45.86;98922.78;5404449;26;21863;-46
2024/05/08 02:18:47;;;;;;;4.38;3.97;;;;;;;10.63;45.76;98923.41;5381459;26;20748;-46
2024/05/08 02:21:17;;;;;;;6.13;5.07;;;;;;;10.66;45.69;98932.72;5397669;26;20007;-46
2024/05/08 02:23:51;;;;;;;5.80;5.20;;;;;;;10.71;45.82;98935.53;5397286;26;20926;-47
2024/05/08 02:26:20;;;;;;;5.50;5.00;;;;;;;10.72;45.84;98935.31;5401565;26;21653;-46
2024/05/08 02:28:50;;;;;;;6.18;4.40;;;;;;;10.79;45.79;98940.53;5400769;26;21067;-46
2024/05/08 02:31:19;;;;;;;5.60;5.03;;;;;;;10.85;45.70;98934.34;5402155;26;20941;-47
2024/05/08 02:33:49;;;;;;;5.10;4.05;;;;;;;10.88;45.58;98936.59;5399659;26;20832;-46
2024/05/08 02:36:19;;;;;;;5.10;4.60;;;;;;;10.81;45.52;98947.19;5401763;26;20022;-46
2024/05/08 02:38:51;;;;;;;5.35;4.38;;;;;;;10.84;45.74;98945.94;5399824;26;20000;-46
2024/05/08 02:41:20;;;;;;;5.78;5.28;;;;;;;10.87;45.81;98945.53;5401426;26;20018;-47
2024/05/08 02:43:50;;;;;;;5.00;4.53;;;;;;;10.94;45.54;98946.28;5401424;26;20796;-46
2024/05/08 02:46:19;;;;;;;6.00;5.47;;;;;;;10.92;45.65;98943.06;5401284;26;22571;-47
2024/05/08 02:48:49;;;;;;;7.35;5.47;;;;;;;10.86;45.61;98943.94;5248455;27;20065;-46
2024/05/08 02:51:18;;;;;;;5.35;4.88;;;;;;;10.86;45.74;98943.94;5258229;27;20022;-46
2024/05/08 02:53:51;;;;;;;5.95;5.35;;;;;;;10.78;46.13;98949.47;5259164;27;20006;-46
2024/05/08 02:56:20;;;;;;;5.57;5.07;;;;;;;10.75;45.85;98950.72;5254458;27;20026;-46
2024/05/08 02:58:50;;;;;;;5.20;4.72;;;;;;;10.85;45.83;98952.84;5261437;27;20018;-46
2024/05/08 03:01:20;;;;;;;5.30;4.80;;;;;;;10.84;45.95;98953.88;5258234;27;20114;-46
2024/05/08 03:03:49;;;;;;;4.90;4.45;;;;;;;10.94;45.62;98941.00;5248465;27;20006;-46
2024/05/08 03:06:19;;;;;;;5.47;4.97;;;;;;;11.00;45.57;98949.91;5286487;26;20049;-46
2024/05/08 03:08:51;;;;;;;6.25;5.05;;;;;;;10.87;45.94;98956.13;5401784;26;20003;-46
2024/05/08 03:11:21;;;;;;;6.07;5.47;;;;;;;10.86;45.89;98954.53;5399954;26;19999;-46
2024/05/08 03:13:52;;;;;;;4.72;4.30;;;;;;;10.98;45.63;98965.97;5397683;26;20007;-46
2024/05/08 03:16:22;;;;;;;5.90;5.30;;;;;;;11.07;45.48;98963.84;5398372;26;20008;-46
2024/05/08 03:18:52;;;;;;;6.10;4.90;;;;;;;11.11;45.57;98953.66;5399686;26;20530;-46
2024/05/08 03:21:21;;;;;;;5.55;4.95;;;;;;;11.15;45.43;98952.97;5399846;26;20004;-46
2024/05/08 03:23:53;;;;;;;6.40;5.50;;;;;;;11.14;45.23;98955.81;5398780;26;20341;-46
2024/05/08 03:26:23;;;;;;;5.18;4.68;;;;;;;11.12;45.06;98958.69;5385986;26;20288;-47
2024/05/08 03:28:52;;;;;;;6.22;5.63;;;;;;;11.12;45.30;98958.69;5373677;26;19996;-46
2024/05/08 03:31:24;;;;;;;5.88;5.13;;;;;;;11.13;45.38;98968.25;5402191;26;20084;-46
2024/05/08 03:33:53;;;;;;;5.85;5.28;;;;;;;11.13;45.33;98973.53;5401363;26;20334;-46
2024/05/08 03:36:23;;;;;;;5.93;5.35;;;;;;;11.07;45.39;98968.31;5382117;26;20008;-46
2024/05/08 03:38:55;;;;;;;6.47;5.75;;;;;;;10.98;45.48;98981.84;5385920;26;20015;-46
2024/05/08 03:41:24;;;;;;;6.55;5.95;;;;;;;10.95;45.71;98984.13;5399541;26;20003;-46
2024/05/08 03:43:55;;;;;;;5.57;4.85;;;;;;;10.87;45.75;98979.09;5383515;26;19996;-46
2024/05/08 03:46:27;;;;;;;5.60;5.10;;;;;;;10.86;45.86;98990.69;5376504;26;20885;-46
2024/05/08 03:48:57;;;;;;;5.63;5.13;;;;;;;11.00;45.73;98985.06;5278667;26;20009;-46
2024/05/08 03:51:27;;;;;;;5.60;4.88;;;;;;;11.13;45.54;98985.97;5268322;26;20011;-47
2024/05/08 03:53:59;;;;;;;5.38;4.88;;;;;;;11.15;45.66;98986.53;5266284;26;20033;-47
2024/05/08 03:56:28;;;;;;;5.78;5.00;;;;;;;11.25;45.45;98983.38;5283802;26;20092;-46
2024/05/08 03:58:58;;;;;;;5.35;4.85;;;;;;;11.19;45.19;98999.13;5268553;26;20528;-46
2024/05/08 04:01:28;;;;;;;5.47;4.97;;;;;;;11.24;45.32;98992.34;5270904;26;20017;-47
2024/05/08 04:03:57;;;;;;;6.50;5.50;;;;;;;11.24;45.25;98990.50;5289835;26;20092;-46
2024/05/08 04:06:27;;;;;;;7.85;5.53;;;;;;;11.26;45.21;98993.72;5311831;26;20004;-46
2024/05/08 04:09:00;;;;;;;6.07;5.47;;;;;;;11.21;45.53;98993.59;5398028;26;19999;-46
2024/05/08 04:11:29;;;;;;;6.65;5.43;;;;;;;11.22;45.34;98997.06;5400808;26;20514;-46
2024/05/08 04:13:59;;;;;;;6.20;5.60;;;;;;;11.06;45.40;99001.88;5408645;26;20022;-46
2024/05/08 04:16:28;;;;;;;6.20;5.20;;;;;;;11.00;45.72;98997.50;5397581;26;19999;-46
2024/05/08 04:18:58;;;;;;;7.28;5.78;;;;;;;11.01;45.66;99009.66;5394406;26;20518;-46
2024/05/08 04:21:27;;;;;;;6.93;6.03;;;;;;;11.00;45.89;99008.06;5399455;26;20003;-46
2024/05/08 04:23:59;;;;;;;5.97;5.38;;;;;;;11.03;45.62;99006.81;5383109;26;20044;-46
2024/05/08 04:26:29;;;;;;;6.57;5.32;;;;;;;10.95;45.83;99011.34;5384945;26;19996;-46
2024/05/08 04:28:58;;;;;;;6.50;5.90;;;;;;;11.02;45.75;99010.47;5386711;26;20008;-46
2024/05/08 04:31:28;;;;;;;6.70;6.10;;;;;;;11.04;45.91;99014.53;5383450;26;20012;-46
2024/05/08 04:33:58;;;;;;;7.82;5.90;;;;;;;11.14;45.52;99012.19;5387137;26;20423;-46
2024/05/08 04:36:27;;;;;;;6.15;5.55;;;;;;;11.16;45.58;99017.25;5387574;26;21605;-46
2024/05/08 04:39:01;;;;;;;6.95;5.50;;;;;;;11.11;45.95;99023.19;5387081;26;20090;-47
2024/05/08 04:41:31;;;;;;;7.45;6.75;;;;;;;11.14;45.77;99029.88;5368554;26;21657;-46
2024/05/08 04:44:00;;;;;;;6.07;5.55;;;;;;;11.18;45.70;99029.22;5399442;26;20007;-46
2024/05/08 04:46:30;;;;;;;6.82;5.43;;;;;;;11.23;45.62;99033.88;5388426;26;20858;-47
2024/05/08 04:49:00;;;;;;;6.07;5.47;;;;;;;11.12;46.16;99027.44;5383896;26;22060;-46
2024/05/08 04:51:32;;;;;;;7.88;6.75;;;;;;;11.14;45.70;99036.00;5384496;26;21796;-45
2024/05/08 04:54:04;;;;;;;6.68;5.45;;;;;;;11.14;45.90;99028.06;5391388;26;20349;-46
2024/05/08 04:56:34;;;;;;;6.53;5.65;;;;;;;11.16;45.84;99030.50;5398023;26;21573;-46
2024/05/08 04:59:03;;;;;;;6.35;5.53;;;;;;;11.24;45.70;99032.81;5397569;26;20040;-46
2024/05/08 05:01:33;;;;;;;6.03;5.43;;;;;;;11.25;45.70;99033.63;5378662;26;20039;-46
2024/05/08 05:04:02;;;;;;;7.03;6.30;;;;;;;11.29;45.77;99032.19;5398372;26;20902;-46
2024/05/08 05:06:33;;;;;;;6.78;5.47;;;;;;;11.34;45.62;99034.97;5376551;26;21176;-46
2024/05/08 05:09:05;;;;;;;6.30;5.70;;;;;;;11.33;45.65;99036.78;5397018;26;20896;-46
2024/05/08 05:11:35;;;;;;;5.75;4.78;;;;;;;11.31;45.71;99041.50;5383941;26;20481;-47
2024/05/08 05:14:05;;;;;;;5.45;4.95;;;;;;;11.41;45.47;99048.94;5395229;26;22828;-45
2024/05/08 05:16:36;;;;;;;6.90;6.30;;;;;;;11.47;45.58;99057.81;5399606;26;20015;-46
2024/05/08 05:19:05;;;;;;;6.18;5.20;;;;;;;11.51;45.32;99057.16;5396355;26;20592;-46
2024/05/08 05:21:35;;;;;;;6.97;6.28;;;;;;;11.61;45.44;99055.84;5399287;26;20843;-46
2024/05/08 05:24:07;;;;;;;6.90;5.70;;;;;;;11.68;45.27;99054.72;5291739;26;20002;-46
2024/05/08 05:26:37;;;;;;;6.03;5.35;;;;;;;11.72;44.98;99057.72;5309209;26;22065;-47
2024/05/08 05:29:06;;;;;;;6.35;5.43;;;;;;;11.77;44.95;99057.88;5320593;26;20005;-46
2024/05/08 05:34:21;;;;;;;6.82;6.07;;;;;;;11.89;44.64;99058.75;5309706;26;20205;-46
2024/05/08 05:36:51;;;;;;;7.35;6.20;;;;;;;11.88;44.89;99057.16;5306806;26;20017;-46
2024/05/08 05:39:23;;;;;;;6.97;6.28;;;;;;;11.97;44.71;99065.63;5291971;26;20009;-45
2024/05/08 05:47:25;;;;;;;7.80;6.78;;;;;;;11.71;45.03;99066.72;5379845;26;20014;-46
2024/05/08 05:49:55;;;;;;;6.25;5.63;;;;;;;11.88;45.47;99067.75;5399866;26;20007;-47
2024/05/08 05:52:24;;;;;;;7.80;6.35;;;;;;;12.14;44.98;99071.88;5402132;26;20004;-46
2024/05/08 05:54:56;;;;;;;8.65;6.28;;;;;;;12.26;44.71;99073.78;5393108;26;20010;-46
2024/05/08 05:57:26;;;;;;;7.30;6.60;;;;;;;12.39;44.58;99070.91;5397453;26;19995;-47
2024/05/08 05:59:55;;;;;;;6.45;5.80;;;;;;;12.52;44.02;99080.53;5397905;26;20003;-46
2024/05/08 06:02:25;;;;;;;9.23;6.97;;;;;;;12.62;43.88;99082.63;5398291;26;20455;-45
2024/05/08 06:04:54;;;;;;;7.07;5.93;;;;;;;12.72;43.82;99082.06;5388507;26;20016;-46
2024/05/08 06:07:24;;;;;;;7.28;6.07;;;;;;;12.77;43.82;99077.72;5387698;26;20458;-45
2024/05/08 06:09:57;;;;;;;7.90;7.10;;;;;;;12.82;43.26;99077.84;5387295;26;20018;-46
2024/05/08 06:12:26;;;;;;;7.45;6.13;;;;;;;12.84;43.11;99081.06;5380075;26;20003;-46
2024/05/08 06:14:56;;;;;;;7.10;5.90;;;;;;;12.81;43.36;99081.53;5412520;26;20018;-47
2024/05/08 06:17:25;;;;;;;8.63;6.88;;;;;;;12.85;42.81;99085.34;5398918;26;20353;-46
2024/05/08 06:19:55;;;;;;;7.88;7.07;;;;;;;12.88;42.96;99084.88;5401870;26;20009;-47
2024/05/08 06:22:24;;;;;;;7.75;7.05;;;;;;;12.87;42.87;99093.88;5401437;26;20501;-46
2024/05/08 06:24:57;;;;;;;7.85;7.05;;;;;;;12.86;42.92;99092.25;5389864;26;21008;-46
2024/05/08 06:27:27;;;;;;;6.00;5.38;;;;;;;12.89;42.90;99085.69;5387149;26;21893;-46
2024/05/08 06:29:56;;;;;;;8.52;6.50;;;;;;;12.88;43.18;99094.69;5401326;26;20012;-46
2024/05/08 06:32:27;;;;;;;9.45;7.82;;;;;;;12.83;43.19;99098.00;5391653;26;20010;-46
2024/05/08 06:34:57;;;;;;;7.88;6.97;;;;;;;12.77;42.87;99103.44;5398830;26;21819;-47
2024/05/08 06:37:27;;;;;;;7.53;6.82;;;;;;;12.76;43.05;99105.25;5397844;26;20076;-46
2024/05/08 06:40:00;;;;;;;7.38;6.05;;;;;;;12.79;43.09;99098.72;5393351;26;20011;-46
2024/05/08 06:42:29;;;;;;;7.75;6.95;;;;;;;12.75;42.97;99102.84;5399044;26;20026;-46
2024/05/08 06:44:59;;;;;;;7.60;6.75;;;;;;;12.75;42.60;99111.63;5398075;26;20496;-47
2024/05/08 06:47:28;;;;;;;8.35;7.10;;;;;;;12.79;43.01;99102.16;5399280;26;20511;-47
2024/05/08 06:49:58;;;;;;;7.88;6.75;;;;;;;12.79;42.96;99110.13;5396528;26;20065;-46
2024/05/08 06:52:31;;;;;;;7.78;6.38;;;;;;;12.81;43.21;99107.25;5397740;26;22013;-46
2024/05/08 06:55:03;;;;;;;8.23;7.43;;;;;;;12.86;42.42;99112.66;5394390;26;20025;-45
2024/05/08 06:57:33;;;;;;;7.40;6.55;;;;;;;12.86;42.73;99113.47;5395952;26;20446;-46
2024/05/08 07:00:03;;;;;;;7.90;6.90;;;;;;;12.87;43.03;99120.41;5378915;26;20334;-46
2024/05/08 07:02:33;;;;;;;;;;;;;;;12.77;43.18;99116.69;5396443;26;20010;-46
2024/05/08 07:05:03;;;;;;;6.75;6.03;;;;;;;12.86;42.60;99121.41;5401607;26;19925;-46
2024/05/08 07:07:33;;;;;;;7.15;6.03;;;;;;;12.95;42.59;99121.91;5398571;26;20017;-46
2024/05/08 07:10:05;;;;;;;6.15;5.53;;;;;;;13.02;42.94;99119.13;5399736;26;20008;-47
2024/05/08 07:12:36;;;;;;;7.95;7.15;;;;;;;13.05;42.43;99127.44;5393705;26;20015;-46
2024/05/08 07:15:07;;;;;;;7.40;6.57;;;;;;;13.12;42.79;99130.00;5407223;26;20357;-46
2024/05/08 07:17:36;;;;;;;8.93;8.02;;;;;;;13.21;42.30;99131.25;5400633;26;20529;-47
2024/05/08 07:20:06;;;;;;;8.70;7.80;;;;;;;12.95;42.29;99132.50;5399591;26;20007;-47
2024/05/08 07:22:38;;;;;;;9.00;7.45;;;;;;;12.82;42.75;99120.28;5366465;26;20004;-46
2024/05/08 07:25:10;;;;;;;9.00;8.10;;;;;;;12.86;42.55;99125.94;5378475;26;20003;-46
2024/05/08 07:27:40;;;;;;;6.53;5.88;;;;;;;12.97;42.39;99132.28;5400848;26;20014;-47
2024/05/08 07:30:10;;;;;;;7.80;6.28;;;;;;;13.15;42.39;99123.41;5398085;26;20003;-47
2024/05/08 07:32:42;;;;;;;7.78;5.82;;;;;;;13.32;42.11;99128.84;5387523;26;20274;-47
2024/05/08 07:35:12;;;;;;;7.38;6.18;;;;;;;13.45;42.03;99134.72;5399658;26;19999;-46
2024/05/08 07:37:42;;;;;;;8.93;6.38;;;;;;;13.56;41.84;99124.31;5400010;26;20743;-47
2024/05/08 07:40:14;;;;;;;7.72;6.50;;;;;;;13.54;41.21;99137.84;5399395;26;20322;-46
2024/05/08 07:42:46;;;;;;;7.70;7.00;;;;;;;13.57;41.42;99140.00;5398208;26;20485;-46
2024/05/08 07:45:19;;;;;;;7.78;6.78;;;;;;;13.71;41.36;99139.81;5400575;26;20018;-46
2024/05/08 07:47:50;;;;;;;7.32;6.50;;;;;;;13.79;40.92;99140.25;5392460;26;20460;-42
2024/05/08 07:50:19;;;;;;;7.10;6.35;;;;;;;13.88;40.31;99134.56;5385034;26;20016;-45
2024/05/08 07:52:50;;;;;;;;;;;;;;;13.90;40.04;99133.31;5401079;26;20047;-47
2024/05/08 07:55:22;;;;;;;6.88;6.18;;;;;;;13.88;40.38;99131.91;5400607;26;20446;-46
2024/05/08 07:57:52;;;;;;;6.20;5.55;;;;;;;13.98;40.07;99134.78;5377392;26;20770;-46
2024/05/08 08:00:21;;;;;;;6.28;5.20;;;;;;;14.08;39.79;99131.53;5388825;26;19996;-46
2024/05/08 08:02:53;;;;;;;7.22;6.22;;;;;;;14.09;40.19;99130.47;5396622;26;20012;-46
2024/05/08 08:05:22;;;;;;;5.25;4.75;;;;;;;14.11;40.04;99131.84;5400653;26;20444;-46
2024/05/08 08:07:52;;;;;;;7.75;6.00;;;;;;;14.09;40.00;99133.13;5400325;26;20016;-45
2024/05/08 08:10:24;;;;;;;6.85;6.25;;;;;;;14.15;39.97;99134.84;5397838;26;20077;-46
2024/05/08 08:12:57;;;;;;;6.40;4.57;;;;;;;14.25;39.70;99134.22;5390739;26;21898;-48
2024/05/08 08:15:26;;;;;;;5.18;4.68;;;;;;;14.28;39.18;99134.53;5385971;26;20299;-46
2024/05/08 08:17:56;;;;;;;6.78;6.03;;;;;;;14.23;38.72;99139.78;5384114;26;20014;-47
2024/05/08 08:20:26;;;;;;;5.43;4.90;;;;;;;14.28;38.60;99142.53;5384901;26;20003;-46
2024/05/08 08:22:56;;;;;;;5.03;4.53;;;;;;;14.34;38.13;99135.47;5391875;26;20022;-46
2024/05/08 08:25:29;;;;;;;7.38;5.97;;;;;;;14.27;37.93;99140.13;5385656;26;20441;-46
2024/05/08 08:27:58;;;;;;;5.45;4.95;;;;;;;14.31;38.32;99133.28;5378872;26;20021;-49
2024/05/08 08:30:28;;;;;;;6.20;5.60;;;;;;;14.38;38.47;99131.28;5390113;26;19995;-48
2024/05/08 08:33:00;;;;;;;4.82;4.43;;;;;;;14.45;38.10;99133.81;5381290;26;20889;-48
2024/05/08 08:35:30;;;;;;;5.80;5.22;;;;;;;14.48;37.70;99131.50;5388704;26;20014;-47
2024/05/08 08:38:04;;;;;;;4.30;3.90;;;;;;;14.60;37.81;99128.78;5399354;26;21059;-47
2024/05/08 08:40:36;;;;;;;4.65;4.25;;;;;;;14.69;36.84;99131.84;5382514;26;21132;-47
2024/05/08 08:43:07;;;;;;;4.07;3.75;;;;;;;14.77;37.09;99132.25;5380379;26;20019;-47
2024/05/08 08:45:38;;;;;;;5.68;5.07;;;;;;;14.84;37.20;99128.66;5390767;26;20019;-47
2024/05/08 08:48:09;;;;;;;5.15;4.32;;;;;;;14.90;36.85;99133.81;5393200;26;20345;-47
2024/05/08 08:50:42;;;;;;;4.00;3.70;;;;;;;14.87;37.00;99133.50;5390279;26;21859;-45
2024/05/08 08:53:14;;;;;;;4.55;4.07;;;;;;;14.90;36.96;99140.97;5398375;26;20473;-47
2024/05/08 08:55:50;;;;;;;3.72;3.42;;;;;;;14.93;36.74;99129.84;5394777;26;20073;-47
2024/05/08 08:58:21;;;;;;;4.57;3.80;;;;;;;14.96;36.17;99132.03;5387898;26;20382;-45
2024/05/08 09:00:51;;;;;;;4.35;3.80;;;;;;;14.98;36.51;99135.25;5398837;26;20000;-47
2024/05/08 09:03:22;;;;;;;4.35;3.95;;;;;;;14.93;36.29;99135.97;5384420;26;20548;-46
2024/05/08 09:05:53;;;;;;;4.13;3.83;;;;;;;14.95;36.49;99133.91;5391063;26;20019;-47
2024/05/08 09:08:23;;;;;;;4.07;3.78;;;;;;;14.96;36.57;99134.69;5385844;26;20008;-47
2024/05/08 09:10:57;;;;;;;4.20;3.80;;;;;;;14.83;35.42;99143.81;5391010;26;20084;-46
2024/05/08 09:13:27;;;;;;;5.15;4.45;;;;;;;14.81;35.71;99142.41;5381389;26;20589;-47
2024/05/08 09:15:57;;;;;;;4.18;3.78;;;;;;;14.68;35.57;99143.53;5387421;26;20026;-47
2024/05/08 09:18:27;;;;;;;3.90;3.47;;;;;;;14.65;35.89;99141.34;5377136;26;20046;-47
2024/05/08 09:20:57;;;;;;;4.57;4.18;;;;;;;14.62;36.03;99152.47;5399614;26;19999;-47
2024/05/08 09:23:27;;;;;;;3.60;3.25;;;;;;;14.66;36.38;99149.09;5398990;26;20014;-47
2024/05/08 09:26:01;;;;;;;4.80;4.35;;;;;;;14.54;35.32;99156.31;5392040;26;20682;-47
2024/05/08 09:28:31;;;;;;;3.95;3.50;;;;;;;14.36;36.00;99152.78;5402876;26;20430;-47
2024/05/08 09:31:01;;;;;;;3.60;3.30;;;;;;;14.38;35.90;99163.97;5396401;26;20014;-47
2024/05/08 09:33:31;;;;;;;5.32;4.70;;;;;;;14.42;35.90;99158.19;5396963;26;20003;-47
2024/05/08 09:36:01;;;;;;;5.07;3.75;;;;;;;14.51;36.17;99159.44;5402932;26;20011;-47
2024/05/08 09:38:30;;;;;;;4.25;3.80;;;;;;;14.57;36.42;99158.50;5402382;26;20003;-47
2024/05/08 09:41:05;;;;;;;6.18;4.38;;;;;;;14.61;36.19;99156.97;5397823;26;20017;-47
2024/05/08 09:43:34;;;;;;;4.38;3.78;;;;;;;14.63;36.14;99154.09;5395401;26;21525;-47
2024/05/08 09:46:06;;;;;;;5.03;3.95;;;;;;;14.70;36.18;99155.53;5400783;26;21707;-47
2024/05/08 09:48:39;;;;;;;5.72;5.13;;;;;;;14.68;36.28;99164.81;5393456;26;20145;-47
2024/05/08 09:51:13;;;;;;;3.55;3.25;;;;;;;14.66;36.20;99165.06;5393632;26;21553;-46
2024/05/08 09:53:52;;;;;;;5.72;4.45;;;;;;;14.68;36.17;99172.78;5393142;26;20003;-47
2024/05/08 09:56:26;;;;;;;5.50;4.38;;;;;;;14.66;35.97;99170.38;5396257;26;21462;-46
2024/05/08 09:58:56;;;;;;;4.93;4.43;;;;;;;14.65;36.10;99168.75;5398032;26;21892;-47
2024/05/08 10:01:26;;;;;;;4.90;3.80;;;;;;;14.59;36.25;99172.38;5397340;26;20146;-47
2024/05/08 10:03:56;;;;;;;4.90;4.28;;;;;;;14.52;36.12;99185.00;5398050;26;21806;-46
2024/05/08 10:06:41;;;;;;;4.80;4.40;;;;;;;14.43;36.31;99181.09;5400485;26;21586;-47
2024/05/08 10:09:13;;;;;;;4.97;3.92;;;;;;;14.47;36.44;99188.38;5400281;26;21597;-46
2024/05/08 10:11:57;;;;;;;4.93;4.40;;;;;;;14.46;36.51;99184.09;5401216;26;20387;-46
2024/05/08 10:14:27;;;;;;;5.85;5.00;;;;;;;14.44;36.25;99188.00;5399617;26;20350;-46
2024/05/08 10:17:10;;;;;;;5.47;4.65;;;;;;;14.38;36.54;99185.25;5388891;26;20010;-46
2024/05/08 10:19:51;;;;;;;5.13;4.00;;;;;;;14.40;36.65;99193.00;5384072;26;21174;-47
2024/05/08 10:22:29;;;;;;;5.20;4.30;;;;;;;14.40;35.82;99191.13;5378715;26;20007;-46
2024/05/08 10:25:13;;;;;;;5.97;4.28;;;;;;;14.33;35.79;99197.63;5380868;26;21504;-47
2024/05/08 10:27:47;;;;;;;5.50;5.00;;;;;;;14.33;35.54;99192.31;5399848;26;20449;-47
2024/05/08 10:30:18;;;;;;;5.90;5.30;;;;;;;14.23;36.09;99194.78;5380703;26;21327;-47
2024/05/08 10:32:49;;;;;;;5.28;4.30;;;;;;;14.25;35.66;99196.16;5399092;26;20016;-46
2024/05/08 10:35:19;;;;;;;5.88;4.47;;;;;;;14.28;35.79;99200.19;5400409;26;20007;-47
2024/05/08 10:37:48;;;;;;;7.40;5.20;;;;;;;14.26;35.82;99196.97;5393172;26;20014;-47
2024/05/08 10:40:18;;;;;;;6.13;4.18;;;;;;;14.22;36.47;99201.94;5388655;26;20004;-47
2024/05/08 10:42:51;;;;;;;5.45;4.82;;;;;;;14.23;36.44;99206.22;5388068;26;20007;-47
2024/05/08 10:45:21;;;;;;;6.13;4.18;;;;;;;14.25;36.41;99196.16;5401664;26;20408;-47
2024/05/08 10:47:51;;;;;;;6.07;4.72;;;;;;;14.32;36.44;99202.16;5400901;26;20715;-47
2024/05/08 10:50:24;;;;;;;5.03;3.88;;;;;;;14.36;36.43;99207.81;5400780;26;20000;-43
2024/05/08 10:52:53;;;;;;;6.25;4.82;;;;;;;14.40;36.14;99208.94;5385410;26;22163;-43
2024/05/08 10:55:29;;;;;;;5.38;4.47;;;;;;;14.40;36.74;99198.31;5387890;26;20150;-43
2024/05/08 10:58:01;;;;;;;4.22;3.65;;;;;;;14.43;36.48;99207.66;5384198;26;20587;-43
2024/05/08 11:00:30;;;;;;;5.57;4.82;;;;;;;14.43;36.46;99202.34;5396833;26;20072;-43
2024/05/08 11:03:08;;;;;;;5.40;4.45;;;;;;;14.44;36.17;99206.63;5397874;26;20007;-43
2024/05/08 11:05:48;;;;;;;6.82;4.57;;;;;;;14.47;36.09;99201.66;5396895;26;24944;-44
2024/05/08 11:08:19;;;;;;;6.22;4.32;;;;;;;14.48;36.37;99205.16;5387305;26;20497;-43
2024/05/08 11:10:56;;;;;;;7.78;4.65;;;;;;;14.38;36.55;99211.81;5393954;26;20000;-43
2024/05/08 11:13:28;;;;;;;;;;;;;;;14.39;37.11;99212.66;5403531;26;20842;-44
2024/05/08 11:15:58;;;;;;;5.03;3.72;;;;;;;14.45;36.65;99217.00;5377022;26;22119;-44
2024/05/08 11:18:28;;;;;;;5.18;4.38;;;;;;;14.46;36.50;99216.00;5399367;26;20902;-45
2024/05/08 11:20:58;;;;;;;5.38;4.32;;;;;;;14.40;36.47;99208.94;5399788;26;21158;-43
2024/05/08 11:23:27;;;;;;;4.60;3.88;;;;;;;14.39;37.09;99215.31;5388094;26;20090;-44
2024/05/08 11:25:57;;;;;;;6.35;5.05;;;;;;;14.27;36.70;99220.66;5394146;26;20022;-43
2024/05/08 11:28:30;;;;;;;5.03;4.22;;;;;;;14.33;37.16;99221.56;5394725;26;20003;-43
2024/05/08 11:31:01;;;;;;;5.85;4.28;;;;;;;14.37;37.29;99225.34;5368200;26;21762;-43
2024/05/08 11:33:30;;;;;;;5.18;4.45;;;;;;;14.44;37.13;99220.69;5387256;26;20004;-43
2024/05/08 11:36:00;;;;;;;5.30;4.45;;;;;;;14.37;37.23;99228.84;5326670;26;20020;-44
2024/05/08 11:38:30;;;;;;;6.88;4.50;;;;;;;14.42;37.45;99229.97;5335922;26;21526;-44
2024/05/08 11:40:59;;;;;;;7.05;5.35;;;;;;;14.38;36.80;99232.28;5307063;26;20550;-43
2024/05/08 11:43:32;;;;;;;7.32;5.50;;;;;;;14.36;36.70;99239.69;5326542;26;20047;-42
2024/05/08 11:46:01;;;;;;;6.32;4.82;;;;;;;14.37;36.84;99231.50;5311356;26;20519;-44
2024/05/08 11:48:31;;;;;;;6.70;5.50;;;;;;;14.39;36.38;99234.72;5321773;26;20008;-43
2024/05/08 11:51:00;;;;;;;6.65;5.03;;;;;;;14.41;35.97;99226.50;5327816;26;20347;-43
2024/05/08 11:53:30;;;;;;;5.97;4.75;;;;;;;14.48;36.19;99237.84;5338970;26;20387;-43
2024/05/08 11:56:00;;;;;;;6.25;5.43;;;;;;;14.46;35.80;99236.44;5399130;26;20003;-43
2024/05/08 11:58:32;;;;;;;6.40;4.65;;;;;;;14.54;35.78;99231.56;5398955;26;20015;-43